Time;durP1;ratioP1;P1;durP2;ratioP2;P2;SDS_P1;SDS_P2;PMS_P1;PMS_P2;Temp;Humidity;BMP_temperature;BMP_pressure;BME280_temperature;BME280_humidity;BME280_pressure;Samples;Min_cycle;Max_cycle;Signal;HPM_P1;HPM_P2
2022/01/10 00:02:12;;;;;;;10.60;2.63;;;;;;;2.16;77.57;99516.84;5000056;28;20061;-56
2022/01/10 00:04:39;;;;;;;10.85;4.10;;;;;;;2.15;77.85;99520.22;5002431;28;20105;-51
2022/01/10 00:07:06;;;;;;;11.55;3.10;;;;;;;2.15;76.87;99525.31;5001645;28;20077;-54
2022/01/10 00:09:33;;;;;;;11.40;4.00;;;;;;;2.13;76.59;99527.84;5005004;28;20493;-51
2022/01/10 00:12:00;;;;;;;10.95;4.03;;;;;;;2.12;76.97;99535.47;5009039;28;20046;-51
2022/01/10 00:14:27;;;;;;;11.65;4.15;;;;;;;2.11;77.42;99534.63;5004070;28;20042;-52
2022/01/10 00:16:53;;;;;;;13.68;6.03;;;;;;;2.10;76.69;99539.69;5007028;28;20138;-55
2022/01/10 00:19:20;;;;;;;11.00;4.13;;;;;;;2.09;76.38;99548.19;5001193;28;20145;-55
2022/01/10 00:21:47;;;;;;;9.05;3.45;;;;;;;2.05;76.45;99555.78;5001121;28;20061;-60
2022/01/10 00:24:14;;;;;;;10.95;3.00;;;;;;;2.00;76.54;99549.72;5006162;28;20089;-55
2022/01/10 00:26:40;;;;;;;11.93;4.25;;;;;;;1.97;76.21;99547.06;5000882;28;20050;-52
2022/01/10 00:29:07;;;;;;;17.00;8.57;;;;;;;1.94;76.95;99559.75;5006538;28;20042;-54
2022/01/10 00:31:33;;;;;;;20.05;6.45;;;;;;;1.90;76.71;99568.19;5002935;28;20085;-52
2022/01/10 00:34:00;;;;;;;11.35;2.67;;;;;;;1.88;77.62;99572.38;5005830;28;20638;-55
2022/01/10 00:36:27;;;;;;;19.83;5.38;;;;;;;1.85;77.88;99574.84;5000998;28;20058;-52
2022/01/10 00:38:53;;;;;;;12.43;4.55;;;;;;;1.84;76.75;99578.22;4999566;28;20128;-51
2022/01/10 00:41:20;;;;;;;14.27;3.47;;;;;;;1.84;77.14;99573.13;4999195;28;20046;-57
2022/01/10 00:43:48;;;;;;;6.10;3.13;;;;;;;1.88;77.33;99585.13;5001088;28;20544;-56
2022/01/10 00:46:19;;;;;;;8.80;4.07;;;;;;;1.90;77.67;99593.72;5002536;28;20042;-55
2022/01/10 00:48:46;;;;;;;7.13;3.20;;;;;;;1.91;77.72;99595.44;5000817;28;20050;-56
2022/01/10 00:51:12;;;;;;;8.40;2.88;;;;;;;1.92;78.32;99594.59;5000384;28;20054;-53
2022/01/10 00:53:44;;;;;;;11.52;3.25;;;;;;;1.92;77.29;99592.94;5001634;28;20093;-56
2022/01/10 00:56:10;;;;;;;12.52;4.43;;;;;;;1.94;76.90;99605.75;5017436;28;20050;-53
2022/01/10 00:58:37;;;;;;;14.07;5.43;;;;;;;1.95;78.27;99602.34;5000475;28;20073;-58
2022/01/10 01:01:04;;;;;;;12.02;4.28;;;;;;;1.96;76.70;99604.06;5001598;28;20133;-53
2022/01/10 01:03:32;;;;;;;9.48;5.40;;;;;;;1.96;76.51;99609.19;5003546;28;20065;-58
2022/01/10 01:05:59;;;;;;;13.20;4.13;;;;;;;1.97;77.27;99610.94;5003314;28;20042;-54
2022/01/10 01:08:28;;;;;;;9.63;4.18;;;;;;;1.97;77.57;99621.16;5004087;28;20050;-55
2022/01/10 01:11:23;;;;;;;12.05;3.10;;;;;;;1.98;77.22;99627.09;5005097;28;20045;-53
2022/01/10 01:13:54;;;;;;;8.23;3.22;;;;;;;1.95;77.26;99633.00;5000372;28;20049;-58
2022/01/10 01:16:45;;;;;;;13.13;3.53;;;;;;;1.91;77.00;99638.84;5002266;28;20049;-53
2022/01/10 01:20:02;;;;;;;8.13;3.38;;;;;;;1.84;77.55;99642.06;4989886;28;20064;-55
2022/01/10 01:24:46;;;;;;;10.60;5.63;;;;;;;1.75;76.65;99646.13;5001384;28;20056;-51
2022/01/10 01:27:14;;;;;;;20.17;5.85;;;;;;;1.76;76.96;99647.84;5001797;28;20041;-57
2022/01/10 01:29:42;;;;;;;11.43;3.25;;;;;;;1.76;77.05;99647.84;5005271;28;20461;-51
2022/01/10 01:32:08;;;;;;;15.70;4.40;;;;;;;1.77;78.45;99658.94;4997188;28;20104;-55
2022/01/10 01:34:35;;;;;;;15.10;3.58;;;;;;;1.79;78.10;99663.25;5000728;28;20054;-52
2022/01/10 01:37:02;;;;;;;19.40;3.75;;;;;;;1.79;78.33;99673.47;5001611;28;20654;-57
2022/01/10 01:39:31;;;;;;;14.77;4.18;;;;;;;1.79;77.05;99675.19;5003419;28;20053;-56
2022/01/10 01:42:06;;;;;;;12.25;3.55;;;;;;;1.74;78.11;99680.16;5006119;28;20520;-52
2022/01/10 01:44:33;;;;;;;13.32;4.60;;;;;;;1.70;77.74;99678.34;5000635;28;20084;-53
2022/01/10 01:46:59;;;;;;;16.95;4.25;;;;;;;1.66;77.48;99676.53;4998056;28;20049;-52
2022/01/10 01:49:26;;;;;;;6.38;3.08;;;;;;;1.63;77.80;99692.63;5001668;28;20096;-54
2022/01/10 01:51:53;;;;;;;9.98;3.80;;;;;;;1.63;77.68;99690.06;4997497;28;20103;-53
2022/01/10 01:54:21;;;;;;;12.23;3.25;;;;;;;1.63;77.18;99697.75;5001676;28;20103;-58
2022/01/10 01:56:48;;;;;;;11.90;3.65;;;;;;;1.68;78.89;99695.28;5000147;28;20050;-54
2022/01/10 01:59:16;;;;;;;9.00;3.13;;;;;;;1.73;77.17;99697.97;5003415;28;20040;-52
2022/01/10 02:01:44;;;;;;;7.43;2.90;;;;;;;1.71;76.94;99700.50;4998728;28;20057;-52
2022/01/10 02:04:11;;;;;;;11.15;3.75;;;;;;;1.68;76.74;99705.50;4999992;28;20046;-53
2022/01/10 02:06:38;;;;;;;15.07;3.17;;;;;;;1.69;78.17;99703.81;5001801;28;20485;-56
2022/01/10 02:09:04;;;;;;;11.05;4.22;;;;;;;1.73;77.94;99714.19;4999307;28;20061;-52
2022/01/10 02:11:31;;;;;;;9.13;3.47;;;;;;;1.78;78.58;99711.72;4999336;28;20101;-53
2022/01/10 02:13:59;;;;;;;18.13;3.90;;;;;;;1.83;78.57;99709.31;4997574;28;20663;-56
2022/01/10 02:16:39;;;;;;;10.80;4.05;;;;;;;1.89;78.20;99724.81;4997504;28;20107;-54
2022/01/10 02:19:06;;;;;;;21.30;3.38;;;;;;;1.94;77.89;99728.34;5000200;28;20724;-58
2022/01/10 02:21:33;;;;;;;12.88;4.80;;;;;;;1.98;77.38;99726.72;5000435;28;20126;-55
2022/01/10 02:24:00;;;;;;;16.55;4.20;;;;;;;2.04;77.48;99735.44;5002347;28;20046;-49
2022/01/10 02:26:26;;;;;;;13.80;4.90;;;;;;;2.12;78.72;99732.19;5001687;28;20050;-49
2022/01/10 02:28:53;;;;;;;12.60;4.72;;;;;;;2.16;77.59;99734.88;4999393;28;20655;-55
2022/01/10 02:31:19;;;;;;;23.60;7.53;;;;;;;2.22;79.04;99734.19;5002934;28;20053;-52
2022/01/10 02:33:48;;;;;;;20.15;5.18;;;;;;;2.28;77.75;99739.47;4999420;28;20049;-59
2022/01/10 02:36:22;;;;;;;11.93;4.22;;;;;;;2.33;77.88;99736.16;5003126;28;20181;-55
2022/01/10 02:38:53;;;;;;;15.88;3.40;;;;;;;2.36;77.45;99747.31;4998988;28;20493;-62
2022/01/10 02:41:22;;;;;;;13.38;3.97;;;;;;;2.36;76.80;99746.47;5001958;28;20050;-51
2022/01/10 02:43:49;;;;;;;9.70;3.88;;;;;;;2.33;77.83;99738.72;4988963;28;20129;-52
2022/01/10 02:46:15;;;;;;;13.35;4.07;;;;;;;2.34;77.10;99732.78;4993243;28;20058;-56
2022/01/10 02:48:42;;;;;;;12.82;4.50;;;;;;;2.38;77.38;99739.69;5004176;28;20776;-51
2022/01/10 02:51:09;;;;;;;10.98;4.30;;;;;;;2.40;77.79;99744.03;4999522;28;20054;-56
2022/01/10 02:53:36;;;;;;;14.80;5.38;;;;;;;2.43;78.23;99738.13;5001814;28;20522;-57
2022/01/10 02:56:03;;;;;;;13.43;4.10;;;;;;;2.44;77.02;99744.97;5001523;28;20046;-55
2022/01/10 02:58:29;;;;;;;10.93;5.30;;;;;;;2.48;78.25;99753.56;5004448;28;20058;-51
2022/01/10 03:00:56;;;;;;;9.88;4.40;;;;;;;2.50;78.55;99763.00;5005820;28;20096;-57
2022/01/10 03:03:29;;;;;;;9.27;3.42;;;;;;;2.56;78.16;99765.75;5004728;28;20567;-55
2022/01/10 03:05:57;;;;;;;13.10;4.15;;;;;;;2.61;78.68;99767.53;5006671;28;20050;-57
2022/01/10 03:08:25;;;;;;;15.23;3.65;;;;;;;2.64;77.83;99772.75;5002887;28;20053;-57
2022/01/10 03:10:52;;;;;;;14.07;3.40;;;;;;;2.68;77.88;99770.31;5002586;28;20042;-54
2022/01/10 03:13:19;;;;;;;13.88;3.28;;;;;;;2.71;78.10;99774.63;5005617;28;20100;-53
2022/01/10 03:15:46;;;;;;;9.02;2.90;;;;;;;2.74;78.19;99774.72;5003897;28;20058;-52
2022/01/10 03:18:13;;;;;;;13.82;4.22;;;;;;;2.76;77.98;99762.81;5002485;28;20699;-56
2022/01/10 03:20:40;;;;;;;10.13;3.58;;;;;;;2.81;78.56;99771.44;5003999;28;20084;-52
2022/01/10 03:23:07;;;;;;;11.07;2.92;;;;;;;2.83;78.43;99771.50;5005277;28;20053;-49
2022/01/10 03:25:33;;;;;;;13.77;3.38;;;;;;;2.86;78.68;99783.47;5007417;28;20054;-53
2022/01/10 03:28:01;;;;;;;9.52;3.78;;;;;;;2.88;77.94;99789.53;5002997;28;20050;-52
2022/01/10 03:30:28;;;;;;;7.72;3.72;;;;;;;2.91;77.47;99792.16;5008061;28;20045;-54
2022/01/10 03:32:58;;;;;;;12.52;3.92;;;;;;;2.94;77.94;99794.78;5002555;28;20050;-54
2022/01/10 03:35:24;;;;;;;8.13;3.33;;;;;;;2.95;78.26;99799.06;5006232;28;20367;-58
2022/01/10 03:37:51;;;;;;;6.60;2.72;;;;;;;2.98;78.19;99804.28;5001308;28;20055;-53
2022/01/10 03:40:18;;;;;;;7.90;3.13;;;;;;;3.00;77.29;99807.72;5006892;28;20053;-54
2022/01/10 03:42:44;;;;;;;7.70;3.55;;;;;;;3.00;78.10;99805.16;5005529;28;20093;-53
2022/01/10 03:45:11;;;;;;;7.80;1.88;;;;;;;3.01;77.02;99806.88;5000558;28;20430;-52
2022/01/10 03:47:38;;;;;;;10.10;4.53;;;;;;;3.02;77.71;99824.00;5002629;28;20046;-55
2022/01/10 03:50:05;;;;;;;12.30;4.10;;;;;;;3.03;76.87;99815.47;5001552;28;20054;-55
2022/01/10 03:52:32;;;;;;;10.10;3.42;;;;;;;3.02;76.88;99821.44;5001377;28;20104;-54
2022/01/10 03:54:59;;;;;;;16.85;4.30;;;;;;;3.03;77.28;99817.16;5004935;28;20053;-56
2022/01/10 03:57:26;;;;;;;11.88;4.30;;;;;;;3.02;77.40;99823.13;4997605;28;20108;-55
2022/01/10 03:59:52;;;;;;;17.40;4.70;;;;;;;3.02;77.45;99831.66;5006960;28;20054;-56
2022/01/10 04:02:19;;;;;;;13.63;4.28;;;;;;;3.05;78.05;99833.44;5001912;28;20042;-51
2022/01/10 04:04:46;;;;;;;9.88;2.50;;;;;;;3.06;76.88;99836.03;5006002;28;20386;-54
2022/01/10 04:07:16;;;;;;;15.18;3.72;;;;;;;3.09;77.74;99832.69;5003635;28;20046;-57
2022/01/10 04:09:43;;;;;;;;;;;;;;;3.06;78.15;99838.59;5002208;28;20054;-54
2022/01/10 04:12:10;;;;;;;11.15;3.70;;;;;;;3.10;77.80;99843.78;5002006;28;19925;-49
2022/01/10 04:14:36;;;;;;;14.18;3.53;;;;;;;3.10;77.76;99849.75;5003751;28;20046;-55
2022/01/10 04:17:03;;;;;;;8.18;4.20;;;;;;;3.13;77.42;99856.63;5003431;28;20120;-54
2022/01/10 04:19:30;;;;;;;15.75;3.13;;;;;;;3.13;77.60;99851.50;4999827;28;20058;-55
2022/01/10 04:21:56;;;;;;;16.15;3.35;;;;;;;3.14;76.83;99860.94;5005282;28;20050;-57
2022/01/10 04:24:23;;;;;;;14.20;2.13;;;;;;;3.15;77.94;99857.56;5002501;28;20433;-54
2022/01/10 04:26:50;;;;;;;11.65;4.03;;;;;;;3.15;77.62;99857.56;4996996;28;20053;-57
2022/01/10 04:29:16;;;;;;;9.95;3.72;;;;;;;3.16;77.59;99849.91;5003354;28;20092;-60
2022/01/10 04:31:43;;;;;;;17.70;4.55;;;;;;;3.18;77.41;99852.50;5003904;28;20080;-53
2022/01/10 04:34:09;;;;;;;17.77;4.20;;;;;;;3.21;78.01;99847.47;5003185;28;20050;-55
2022/01/10 04:36:36;;;;;;;11.30;3.78;;;;;;;3.24;76.98;99857.75;5003028;28;20049;-53
2022/01/10 04:39:03;;;;;;;10.15;3.17;;;;;;;3.27;78.01;99857.00;5000193;28;20046;-52
2022/01/10 04:41:29;;;;;;;10.73;3.75;;;;;;;3.30;77.45;99860.47;5001251;28;20046;-52
2022/01/10 04:43:56;;;;;;;13.63;3.97;;;;;;;3.34;77.97;99864.84;4999487;28;20654;-58
2022/01/10 04:46:23;;;;;;;12.40;3.40;;;;;;;3.40;78.10;99868.38;5001249;28;20049;-52
2022/01/10 04:48:49;;;;;;;11.80;3.55;;;;;;;3.45;77.62;99871.94;4999860;28;20042;-53
2022/01/10 04:51:17;;;;;;;13.80;5.30;;;;;;;3.49;77.67;99872.84;5003136;28;20050;-52
2022/01/10 04:53:48;;;;;;;15.60;4.43;;;;;;;3.53;77.83;99880.66;5004189;28;20054;-53
2022/01/10 04:56:16;;;;;;;17.50;4.50;;;;;;;3.54;77.96;99882.38;4999975;28;20054;-55
2022/01/10 04:58:45;;;;;;;15.02;4.05;;;;;;;3.57;77.83;99877.31;5004841;28;20046;-56
2022/01/10 05:01:15;;;;;;;12.35;3.90;;;;;;;3.60;77.87;99889.31;4999770;28;20113;-54
2022/01/10 05:03:42;;;;;;;7.93;2.85;;;;;;;3.60;77.32;99887.66;5002099;28;20058;-55
2022/01/10 05:06:09;;;;;;;12.50;3.35;;;;;;;3.62;77.44;99889.38;5001635;28;20387;-54
2022/01/10 05:08:35;;;;;;;8.90;2.97;;;;;;;3.63;77.77;99896.22;4997802;28;20065;-55
2022/01/10 05:11:02;;;;;;;11.05;4.15;;;;;;;3.60;77.26;99891.91;5002169;28;20092;-52
2022/01/10 05:13:29;;;;;;;11.57;3.25;;;;;;;3.56;77.52;99896.09;5002234;28;20045;-52
2022/01/10 05:15:55;;;;;;;17.27;3.97;;;;;;;3.57;77.74;99896.94;5003439;28;20139;-54
2022/01/10 05:18:24;;;;;;;14.07;2.97;;;;;;;3.57;77.41;99897.81;4999866;28;20052;-58
2022/01/10 05:20:50;;;;;;;9.13;3.60;;;;;;;3.56;77.51;99906.34;4997895;28;20046;-52
2022/01/10 05:23:18;;;;;;;9.23;3.08;;;;;;;3.60;77.40;99917.50;5000971;28;20575;-55
2022/01/10 05:25:46;;;;;;;14.10;3.10;;;;;;;3.63;77.12;99921.81;5003444;28;20084;-54
2022/01/10 05:28:14;;;;;;;8.55;2.35;;;;;;;3.65;77.40;99920.19;5002688;28;20082;-56
2022/01/10 05:30:41;;;;;;;8.32;2.55;;;;;;;3.66;77.45;99932.16;5003905;28;20053;-55
2022/01/10 05:33:08;;;;;;;8.05;2.80;;;;;;;3.68;77.02;99930.50;5002956;28;20053;-57
2022/01/10 05:35:36;;;;;;;15.15;3.10;;;;;;;3.69;77.93;99937.34;5000073;28;20100;-56
2022/01/10 05:38:03;;;;;;;6.47;2.97;;;;;;;3.71;77.26;99935.69;4996363;28;20371;-57
2022/01/10 05:40:30;;;;;;;10.48;3.13;;;;;;;3.76;77.72;99943.47;5004032;28;20061;-59
2022/01/10 05:42:56;;;;;;;11.00;3.25;;;;;;;3.77;77.22;99935.84;5000765;28;20054;-56
2022/01/10 05:45:23;;;;;;;11.73;3.50;;;;;;;3.79;77.32;99948.69;5002808;28;20061;-55
2022/01/10 05:47:50;;;;;;;9.40;2.83;;;;;;;3.79;77.36;99952.13;5000605;28;20057;-57
2022/01/10 05:50:20;;;;;;;10.50;3.10;;;;;;;3.80;77.65;99961.53;4998917;28;20042;-56
2022/01/10 05:52:47;;;;;;;12.65;3.10;;;;;;;3.81;77.14;99972.63;5000265;28;20049;-51
2022/01/10 05:55:14;;;;;;;11.43;2.95;;;;;;;3.80;77.61;99976.91;4999935;28;20053;-53
2022/01/10 05:57:40;;;;;;;8.77;3.75;;;;;;;3.80;77.41;99987.16;5002620;28;20104;-59
2022/01/10 06:00:08;;;;;;;8.15;3.67;;;;;;;3.80;76.91;99997.41;5000791;28;20049;-53
2022/01/10 06:02:34;;;;;;;9.38;3.05;;;;;;;3.81;77.34;99998.25;5002240;28;20077;-56
2022/01/10 06:05:08;;;;;;;13.93;3.45;;;;;;;3.80;77.42;100006.78;5001385;28;20043;-55
2022/01/10 06:07:36;;;;;;;7.13;2.70;;;;;;;3.80;77.49;100007.66;4996458;28;20393;-55
2022/01/10 06:10:05;;;;;;;8.38;2.83;;;;;;;3.80;77.07;100020.47;5003837;28;20100;-55
2022/01/10 06:12:32;;;;;;;14.77;3.30;;;;;;;3.80;76.98;100022.16;5002509;28;20054;-55
2022/01/10 06:14:59;;;;;;;8.38;3.10;;;;;;;3.80;76.76;100017.91;4998315;28;20046;-59
2022/01/10 06:17:25;;;;;;;12.43;3.15;;;;;;;3.77;77.36;100025.50;5005681;28;20046;-55
2022/01/10 06:19:52;;;;;;;12.02;2.83;;;;;;;3.77;77.59;100029.75;4998003;28;20143;-58
2022/01/10 06:22:19;;;;;;;5.40;2.92;;;;;;;3.73;77.46;100036.50;5008859;28;20104;-50
2022/01/10 06:24:45;;;;;;;10.93;3.42;;;;;;;3.71;76.99;100045.84;5004312;28;20058;-55
2022/01/10 06:27:12;;;;;;;11.50;3.00;;;;;;;3.71;76.81;100048.41;5005336;28;20108;-57
2022/01/10 06:29:39;;;;;;;9.82;3.38;;;;;;;3.70;77.13;100062.91;5005901;28;20123;-53
2022/01/10 06:32:06;;;;;;;9.30;3.35;;;;;;;3.69;77.33;100057.75;5000981;28;20056;-52
2022/01/10 06:34:33;;;;;;;11.88;3.53;;;;;;;3.70;77.46;100056.91;5003526;28;20049;-55
2022/01/10 06:37:01;;;;;;;7.68;3.20;;;;;;;3.70;77.33;100054.34;5003084;28;20084;-56
2022/01/10 06:39:28;;;;;;;12.57;2.92;;;;;;;3.72;76.94;100055.28;5005893;28;20065;-55
2022/01/10 06:41:55;;;;;;;8.15;3.17;;;;;;;3.73;77.46;100057.00;5005275;28;20567;-54
2022/01/10 06:44:21;;;;;;;8.65;3.38;;;;;;;3.76;77.17;100062.22;5005077;28;20054;-54
2022/01/10 06:46:48;;;;;;;12.52;3.28;;;;;;;3.79;77.00;100067.41;5008501;28;20050;-53
2022/01/10 06:49:14;;;;;;;7.32;2.67;;;;;;;3.82;77.41;100070.03;5003197;28;20506;-54
2022/01/10 06:51:41;;;;;;;10.00;3.38;;;;;;;3.85;77.61;100077.81;5006404;28;20054;-52
2022/01/10 06:54:08;;;;;;;12.35;2.65;;;;;;;3.86;77.52;100084.66;5004854;28;20077;-58
2022/01/10 06:56:34;;;;;;;16.02;3.33;;;;;;;3.85;76.86;100093.19;5006111;28;20092;-54
2022/01/10 06:59:01;;;;;;;8.50;3.65;;;;;;;3.84;76.30;100096.56;5006699;28;20486;-58
2022/01/10 07:01:28;;;;;;;7.82;3.60;;;;;;;3.85;77.29;100098.31;5002369;28;20053;-57
2022/01/10 07:03:57;;;;;;;14.45;3.40;;;;;;;3.85;77.25;100102.56;4999960;28;20072;-56
2022/01/10 07:06:24;;;;;;;9.90;4.10;;;;;;;3.85;77.17;100102.56;5003778;28;20522;-51
2022/01/10 07:08:50;;;;;;;8.80;3.42;;;;;;;3.86;77.20;100105.16;5006407;28;20050;-57
2022/01/10 07:11:17;;;;;;;11.02;3.22;;;;;;;3.82;77.13;100111.03;5008166;28;20045;-58
2022/01/10 07:13:44;;;;;;;13.82;3.67;;;;;;;3.83;77.00;100107.66;5005424;28;20061;-52
2022/01/10 07:16:11;;;;;;;10.43;2.15;;;;;;;3.84;77.34;100101.69;5004157;28;20562;-51
2022/01/10 07:18:39;;;;;;;13.00;3.67;;;;;;;3.82;77.41;100103.34;5002705;28;20069;-59
2022/01/10 07:21:06;;;;;;;11.13;3.22;;;;;;;3.81;76.91;100106.75;5004308;28;20054;-55
2022/01/10 07:23:32;;;;;;;8.20;3.10;;;;;;;3.82;76.69;100113.59;4995778;28;20311;-57
2022/01/10 07:25:59;;;;;;;8.35;2.80;;;;;;;3.83;77.55;100111.91;5004442;28;20038;-50
2022/01/10 07:28:25;;;;;;;12.70;3.53;;;;;;;3.83;77.55;100105.09;5005048;28;20119;-54
2022/01/10 07:30:52;;;;;;;22.70;3.75;;;;;;;3.81;77.46;100106.75;5004210;28;20961;-54
2022/01/10 07:33:19;;;;;;;19.42;4.03;;;;;;;3.82;76.88;100107.63;5006438;28;20121;-51
2022/01/10 07:35:45;;;;;;;8.70;3.30;;;;;;;3.79;77.26;100103.28;5003777;28;20092;-57
2022/01/10 07:38:12;;;;;;;7.88;4.15;;;;;;;3.75;76.82;100101.44;5006314;28;20398;-57
2022/01/10 07:40:39;;;;;;;8.82;3.40;;;;;;;3.72;77.03;100101.38;5005525;28;20050;-52
2022/01/10 07:43:05;;;;;;;12.77;3.28;;;;;;;3.71;76.80;100109.88;5001455;28;20058;-57
2022/01/10 07:45:32;;;;;;;12.82;3.78;;;;;;;3.70;76.97;100097.91;4996999;28;20057;-54
2022/01/10 07:47:59;;;;;;;11.48;3.45;;;;;;;3.71;77.49;100099.63;5002334;28;20049;-54
2022/01/10 07:50:26;;;;;;;12.07;3.50;;;;;;;3.72;77.21;100096.25;4998202;28;20050;-58
2022/01/10 07:52:52;;;;;;;17.80;3.63;;;;;;;3.74;76.98;100109.97;5003772;28;20054;-53
2022/01/10 07:55:19;;;;;;;10.60;2.60;;;;;;;3.78;77.17;100116.91;5005102;28;20045;-53
2022/01/10 07:57:46;;;;;;;16.95;4.03;;;;;;;3.82;77.54;100123.84;5003583;28;20054;-57
2022/01/10 08:00:13;;;;;;;19.63;5.95;;;;;;;3.85;77.55;100129.06;5003255;28;20543;-51
2022/01/10 08:02:39;;;;;;;12.10;4.45;;;;;;;3.89;77.10;100134.25;4999523;28;20054;-52
2022/01/10 08:05:08;;;;;;;11.50;4.63;;;;;;;3.86;76.82;100140.19;5006921;28;20044;-60
2022/01/10 08:07:35;;;;;;;9.23;3.70;;;;;;;3.80;77.17;100143.44;4999690;28;20564;-57
2022/01/10 08:10:03;;;;;;;11.35;3.42;;;;;;;3.78;77.29;100157.06;5004507;28;20100;-57
2022/01/10 08:12:30;;;;;;;9.77;1.60;;;;;;;3.77;77.00;100161.28;5001859;28;20505;-54
2022/01/10 08:14:57;;;;;;;7.45;3.78;;;;;;;3.74;76.69;100166.31;4998737;28;20050;-55
2022/01/10 08:17:24;;;;;;;8.60;3.00;;;;;;;3.75;76.90;100168.06;5004974;28;20054;-54
2022/01/10 08:19:51;;;;;;;6.93;2.85;;;;;;;3.74;77.02;100176.56;5005998;28;20050;-56
2022/01/10 08:22:18;;;;;;;9.25;3.03;;;;;;;3.73;77.08;100183.41;5002069;28;20054;-61
2022/01/10 08:24:44;;;;;;;12.07;4.13;;;;;;;3.74;76.85;100197.06;5000835;28;20497;-54
2022/01/10 08:27:11;;;;;;;10.00;3.53;;;;;;;3.76;77.22;100204.81;5002297;28;20069;-57
2022/01/10 08:29:37;;;;;;;10.30;3.75;;;;;;;3.77;77.04;100212.53;5001206;28;20118;-50
2022/01/10 08:32:04;;;;;;;9.95;3.47;;;;;;;3.77;77.18;100212.53;4996102;28;20045;-52
2022/01/10 08:34:34;;;;;;;13.70;3.85;;;;;;;3.77;77.68;100222.78;4999444;28;20046;-57
2022/01/10 08:37:02;;;;;;;8.55;3.53;;;;;;;3.76;77.32;100226.19;5001769;28;20045;-53
2022/01/10 08:39:28;;;;;;;12.25;3.92;;;;;;;3.77;77.36;100222.78;5000282;28;20553;-51
2022/01/10 08:41:55;;;;;;;14.52;3.55;;;;;;;3.80;77.36;100225.44;5000295;28;20502;-54
2022/01/10 08:44:21;;;;;;;11.52;3.38;;;;;;;3.80;77.00;100216.88;5001597;28;20108;-56
2022/01/10 08:46:48;;;;;;;9.35;3.13;;;;;;;3.81;77.29;100224.59;5004572;28;20127;-54
2022/01/10 08:49:15;;;;;;;8.55;2.03;;;;;;;3.83;76.97;100227.22;5006744;28;20713;-56
2022/01/10 08:51:42;;;;;;;8.80;2.80;;;;;;;3.85;77.05;100233.25;5003977;28;20131;-56
2022/01/10 08:54:09;;;;;;;9.65;2.83;;;;;;;3.86;76.93;100238.41;5004108;28;20060;-58
2022/01/10 08:56:36;;;;;;;9.45;3.10;;;;;;;3.89;77.66;100231.63;4999484;28;20058;-48
2022/01/10 08:59:04;;;;;;;13.07;4.05;;;;;;;3.93;76.92;100241.16;5002664;28;20115;-54
2022/01/10 09:01:34;;;;;;;11.52;3.70;;;;;;;3.94;77.23;100240.31;5002277;28;20068;-60
2022/01/10 09:04:01;;;;;;;10.35;2.70;;;;;;;3.95;77.23;100242.91;5002532;28;20054;-53
2022/01/10 09:06:28;;;;;;;16.42;3.72;;;;;;;3.98;76.77;100253.25;5001543;28;20037;-53
2022/01/10 09:08:54;;;;;;;9.98;3.58;;;;;;;4.02;77.55;100249.06;5005220;28;20077;-55
2022/01/10 09:11:21;;;;;;;14.90;4.13;;;;;;;4.07;77.59;100244.97;5005042;28;20697;-57
2022/01/10 09:13:48;;;;;;;12.93;3.58;;;;;;;4.13;77.52;100245.94;4998065;28;20054;-57
2022/01/10 09:16:15;;;;;;;7.55;2.10;;;;;;;4.17;77.52;100248.63;5007816;28;20449;-56
2022/01/10 09:18:41;;;;;;;13.68;3.60;;;;;;;4.22;77.45;100261.59;5003964;28;20414;-57
2022/01/10 09:21:08;;;;;;;12.23;3.40;;;;;;;4.26;77.48;100253.16;5000766;28;20057;-56
2022/01/10 09:23:35;;;;;;;5.65;2.85;;;;;;;4.32;77.81;100258.44;4998910;28;20104;-55
2022/01/10 09:26:01;;;;;;;10.63;2.67;;;;;;;4.35;77.32;100255.94;5005718;28;20045;-55
2022/01/10 09:28:28;;;;;;;11.38;3.72;;;;;;;4.42;76.98;100266.38;4999941;28;20050;-57
2022/01/10 09:30:55;;;;;;;7.13;3.00;;;;;;;4.43;77.59;100270.66;5001790;28;20096;-52
2022/01/10 09:33:27;;;;;;;13.00;3.42;;;;;;;4.48;77.53;100269.09;5004885;28;20093;-57
2022/01/10 09:35:54;;;;;;;12.57;4.03;;;;;;;4.52;77.29;100281.16;5003055;28;20042;-53
2022/01/10 09:38:20;;;;;;;22.15;3.20;;;;;;;4.55;77.34;100288.94;5007269;28;20045;-53
2022/01/10 09:40:48;;;;;;;18.08;5.68;;;;;;;4.55;77.13;100296.63;4997612;28;20054;-55
2022/01/10 09:43:18;;;;;;;15.10;3.35;;;;;;;4.59;77.17;100303.56;5006401;28;20042;-53
2022/01/10 09:45:45;;;;;;;8.93;3.42;;;;;;;4.62;77.14;100302.78;5001709;28;20054;-53
2022/01/10 09:48:12;;;;;;;13.05;4.15;;;;;;;4.65;77.28;100302.88;5005776;28;20042;-55
2022/01/10 09:50:39;;;;;;;9.70;2.45;;;;;;;4.69;77.16;100303.84;5001223;28;20423;-56
2022/01/10 09:53:07;;;;;;;11.80;3.55;;;;;;;4.74;77.36;100312.50;5002799;28;20053;-58
2022/01/10 09:55:34;;;;;;;13.85;1.92;;;;;;;4.78;77.02;100308.31;4999016;28;20613;-58
2022/01/10 09:58:03;;;;;;;12.20;4.07;;;;;;;4.83;76.97;100307.59;5004334;28;20100;-57
2022/01/10 10:00:31;;;;;;;9.05;3.92;;;;;;;4.87;77.38;100309.41;5001424;28;20069;-51
2022/01/10 10:02:58;;;;;;;18.92;3.45;;;;;;;4.95;77.35;100311.28;4996906;28;20483;-58
2022/01/10 10:05:25;;;;;;;14.07;2.10;;;;;;;4.98;76.59;100313.94;5003094;28;20644;-54
2022/01/10 10:07:52;;;;;;;15.77;4.53;;;;;;;5.01;77.08;100317.44;4998616;28;20127;-55
2022/01/10 10:10:21;;;;;;;15.98;4.32;;;;;;;5.07;77.26;100324.41;4997014;28;20554;-53
2022/01/10 10:12:49;;;;;;;18.65;3.78;;;;;;;5.13;77.01;100323.69;4987703;28;20061;-53
2022/01/10 10:15:19;;;;;;;11.32;3.67;;;;;;;5.20;77.25;100322.19;5004504;28;20045;-54
2022/01/10 10:17:46;;;;;;;;;;;;;;;5.21;77.36;100329.03;5003245;28;20045;-54
2022/01/10 10:20:16;;;;;;;15.02;4.00;;;;;;;5.25;77.11;100331.72;5002439;28;19921;-54
2022/01/10 10:23:04;;;;;;;17.75;4.70;;;;;;;5.30;76.30;100344.66;5005057;28;20147;-56
2022/01/10 10:25:33;;;;;;;13.43;5.78;;;;;;;5.34;76.98;100351.59;4999222;28;20046;-57
2022/01/10 10:28:01;;;;;;;18.33;4.50;;;;;;;5.38;77.13;100348.25;4997534;28;20039;-57
2022/01/10 10:30:31;;;;;;;16.00;4.60;;;;;;;5.36;76.91;100355.09;4985571;28;20061;-55
2022/01/10 10:33:18;;;;;;;18.35;3.47;;;;;;;5.35;76.86;100357.63;5004332;28;20444;-53
2022/01/10 10:36:03;;;;;;;21.02;6.15;;;;;;;5.32;76.14;100360.97;4997521;28;20038;-53
2022/01/10 10:38:30;;;;;;;15.40;5.95;;;;;;;5.32;76.34;100367.81;4998042;28;20085;-55
2022/01/10 10:41:01;;;;;;;19.05;6.45;;;;;;;5.33;76.99;100367.00;5004034;28;20046;-57
2022/01/10 10:43:32;;;;;;;16.73;4.40;;;;;;;5.32;76.29;100378.97;4999709;28;20482;-52
2022/01/10 10:46:01;;;;;;;15.48;5.40;;;;;;;5.30;77.15;100374.63;5003302;28;20045;-56
2022/01/10 10:48:29;;;;;;;16.45;5.50;;;;;;;5.27;77.18;100375.44;4998657;28;20050;-53
2022/01/10 10:50:58;;;;;;;14.32;5.60;;;;;;;5.24;77.14;100370.22;5002816;28;20050;-52
2022/01/10 10:53:28;;;;;;;19.60;6.45;;;;;;;5.21;76.77;100375.25;5000323;28;20046;-55
2022/01/10 10:55:58;;;;;;;19.23;6.13;;;;;;;5.17;76.87;100368.31;5002546;28;20042;-51
2022/01/10 10:58:31;;;;;;;18.00;5.43;;;;;;;5.16;77.17;100387.13;5005877;28;20049;-51
2022/01/10 11:01:01;;;;;;;16.23;5.65;;;;;;;5.11;76.76;100374.16;5000679;28;20073;-55
2022/01/10 11:03:28;;;;;;;16.40;5.15;;;;;;;5.11;77.21;100380.19;5005611;28;20465;-50
2022/01/10 11:05:59;;;;;;;16.13;5.47;;;;;;;5.08;77.65;100380.09;4998583;28;20069;-53
2022/01/10 11:08:28;;;;;;;17.60;5.95;;;;;;;5.08;77.43;100380.09;4999614;28;20541;-53
2022/01/10 11:10:55;;;;;;;16.33;5.63;;;;;;;5.05;76.89;100372.31;5005453;28;20061;-54
2022/01/10 11:13:24;;;;;;;11.05;5.05;;;;;;;5.04;77.76;100368.03;5004448;28;20573;-53
2022/01/10 11:15:52;;;;;;;20.00;5.43;;;;;;;5.04;77.36;100367.13;5006213;28;20060;-57
2022/01/10 11:18:21;;;;;;;13.73;4.47;;;;;;;5.06;77.47;100371.47;5004927;28;20510;-51
2022/01/10 11:20:51;;;;;;;18.40;5.68;;;;;;;5.08;77.48;100369.84;5006901;28;20108;-52
2022/01/10 11:23:40;;;;;;;17.95;3.15;;;;;;;5.10;76.90;100378.44;5001396;28;20466;-55
2022/01/10 11:26:08;;;;;;;15.27;5.32;;;;;;;5.16;77.41;100384.56;5002043;28;20049;-52
2022/01/10 11:28:46;;;;;;;15.25;4.97;;;;;;;5.21;76.68;100380.41;5004561;28;20100;-53
2022/01/10 11:31:18;;;;;;;13.27;4.70;;;;;;;5.23;77.40;100383.84;5001952;28;20503;-61
2022/01/10 11:33:46;;;;;;;13.88;5.60;;;;;;;5.25;76.56;100393.38;5004436;28;20064;-58
2022/01/10 11:36:13;;;;;;;15.82;5.07;;;;;;;5.30;76.93;100388.31;4996485;28;20114;-51
2022/01/10 11:38:48;;;;;;;11.05;4.78;;;;;;;5.30;76.58;100385.75;5003101;28;20545;-52